createdAt,value
2022-10-26T00:01:11.904Z,17.59
2022-10-26T00:03:58.060Z,17.58
2022-10-26T00:06:42.025Z,17.42
2022-10-26T00:09:26.256Z,17.38
2022-10-26T00:12:10.576Z,17.64
2022-10-26T00:14:54.723Z,17.68
2022-10-26T00:17:40.136Z,17.63
2022-10-26T00:20:24.357Z,17.07
2022-10-26T00:23:08.324Z,17.18
2022-10-26T00:25:56.800Z,17.21
2022-10-26T00:28:40.743Z,17.49
2022-10-26T00:31:25.516Z,17.36
2022-10-26T00:34:12.020Z,16.97
2022-10-26T00:36:56.073Z,16.79
2022-10-26T00:39:40.163Z,17.21
2022-10-26T00:42:24.654Z,16.81
2022-10-26T00:45:20.680Z,17.13
2022-10-26T00:48:09.134Z,17.07
2022-10-26T00:50:55.900Z,16.96
2022-10-26T00:53:40.502Z,17.08
2022-10-26T00:56:25.347Z,17.05
2022-10-26T00:59:12.527Z,16.75
2022-10-26T01:01:56.473Z,17.09
2022-10-26T01:04:40.673Z,16.76
2022-10-26T01:07:27.329Z,16.67
2022-10-26T01:10:11.640Z,16.05
2022-10-26T01:12:58.165Z,16.62
2022-10-26T01:15:52.722Z,16.81
2022-10-26T01:18:45.992Z,16.83
2022-10-26T01:21:45.222Z,16.97
2022-10-26T01:24:54.174Z,16.70
2022-10-26T01:27:39.773Z,16.96
2022-10-26T01:30:40.183Z,16.92
2022-10-26T01:33:32.240Z,17.11
2022-10-26T01:36:23.578Z,16.81
2022-10-26T01:39:16.041Z,17.01
2022-10-26T01:42:02.105Z,16.76
2022-10-26T01:44:50.742Z,16.73
2022-10-26T01:47:38.554Z,16.47
2022-10-26T01:50:23.477Z,16.51
2022-10-26T01:53:07.245Z,16.25
2022-10-26T01:55:52.405Z,16.28
2022-10-26T01:59:06.099Z,16.22
2022-10-26T02:02:12.867Z,16.38
2022-10-26T02:05:13.756Z,15.84
2022-10-26T02:08:08.531Z,15.91
2022-10-26T02:11:03.122Z,15.83
2022-10-26T02:13:54.151Z,15.91
2022-10-26T02:16:46.337Z,15.89
2022-10-26T02:19:37.271Z,16.23
2022-10-26T02:22:28.367Z,16.06
2022-10-26T02:25:18.447Z,16.00
2022-10-26T02:28:07.761Z,16.01
2022-10-26T02:30:56.771Z,15.95
2022-10-26T02:33:43.083Z,16.27
2022-10-26T02:36:30.493Z,16.15
2022-10-26T02:39:18.103Z,16.12
2022-10-26T02:42:04.373Z,15.72
2022-10-26T02:44:52.549Z,15.74
2022-10-26T02:47:36.739Z,16.04
2022-10-26T02:50:23.204Z,15.49
2022-10-26T02:53:18.834Z,15.63
2022-10-26T02:56:09.598Z,15.71
2022-10-26T02:58:59.185Z,15.68
2022-10-26T03:01:44.049Z,15.71
2022-10-26T03:04:32.232Z,15.20
2022-10-26T03:07:22.373Z,15.77
2022-10-26T03:10:07.078Z,15.82
2022-10-26T03:12:52.622Z,15.70
2022-10-26T03:15:36.915Z,15.58
2022-10-26T03:18:20.783Z,15.45
2022-10-26T03:21:04.980Z,15.73
2022-10-26T03:23:50.678Z,15.64
2022-10-26T03:26:34.805Z,15.66
2022-10-26T03:29:20.282Z,15.73
2022-10-26T03:32:04.336Z,16.21
2022-10-26T03:34:48.549Z,16.06
2022-10-26T03:37:32.465Z,15.98
2022-10-26T03:40:16.840Z,16.00
2022-10-26T03:43:00.792Z,16.02
2022-10-26T03:45:46.363Z,15.97
2022-10-26T03:48:30.407Z,15.57
2022-10-26T03:51:14.397Z,15.39
2022-10-26T03:53:58.484Z,15.32
2022-10-26T03:56:42.396Z,15.60
2022-10-26T03:59:26.524Z,15.28
2022-10-26T04:02:12.199Z,15.45
2022-10-26T04:04:56.268Z,15.05
2022-10-26T04:07:40.239Z,15.05
2022-10-26T04:10:24.876Z,15.42
2022-10-26T04:13:10.239Z,15.07
2022-10-26T04:15:54.257Z,15.14
2022-10-26T04:18:39.606Z,15.15
2022-10-26T04:21:23.561Z,15.21
2022-10-26T04:24:10.634Z,15.29
2022-10-26T04:26:54.615Z,15.21
2022-10-26T04:29:38.507Z,14.90
2022-10-26T04:32:22.510Z,15.05
2022-10-26T04:35:12.043Z,15.25
2022-10-26T04:38:00.297Z,15.28
2022-10-26T04:40:44.374Z,15.01
2022-10-26T04:43:28.390Z,14.76
2022-10-26T04:46:16.667Z,15.06
2022-10-26T04:49:00.947Z,15.24
2022-10-26T04:51:46.556Z,15.05
2022-10-26T04:54:31.800Z,15.12
2022-10-26T04:57:15.869Z,15.08
2022-10-26T04:59:59.921Z,15.38
2022-10-26T05:02:44.051Z,15.06
2022-10-26T05:05:28.011Z,15.17
2022-10-26T05:08:13.466Z,15.51
2022-10-26T05:10:57.470Z,15.75
2022-10-26T05:13:41.559Z,15.07
2022-10-26T05:16:25.782Z,15.20
2022-10-26T05:19:09.736Z,15.58
2022-10-26T05:21:53.937Z,15.63
2022-10-26T05:24:39.445Z,16.06
2022-10-26T05:27:23.456Z,15.92
2022-10-26T05:30:08.481Z,16.18
2022-10-26T05:32:55.464Z,16.17
2022-10-26T05:35:39.462Z,15.95
2022-10-26T05:38:23.468Z,16.03
2022-10-26T05:41:08.836Z,16.14
2022-10-26T05:43:52.874Z,15.65
2022-10-26T05:46:36.845Z,16.06
2022-10-26T05:49:20.898Z,16.21
2022-10-26T05:52:05.100Z,16.47
2022-10-26T05:54:49.352Z,16.11
2022-10-26T05:57:35.746Z,15.92
2022-10-26T06:00:22.018Z,16.02
2022-10-26T06:03:16.073Z,15.85
2022-10-26T06:06:03.980Z,15.94
2022-10-26T06:08:51.206Z,16.47
2022-10-26T06:11:35.782Z,16.40
2022-10-26T06:14:21.662Z,16.62
2022-10-26T06:17:19.474Z,17.03
2022-10-26T06:20:15.682Z,17.15
2022-10-26T06:23:22.279Z,17.22
2022-10-26T06:26:16.355Z,16.87
2022-10-26T06:29:09.151Z,17.09
2022-10-26T06:31:54.285Z,16.94
2022-10-26T06:34:44.227Z,17.20
2022-10-26T06:37:30.650Z,17.10
2022-10-26T06:40:17.414Z,17.32
2022-10-26T06:43:01.603Z,17.45
2022-10-26T06:45:49.747Z,17.35
2022-10-26T06:48:50.985Z,17.38
2022-10-26T06:51:43.167Z,17.17
2022-10-26T06:54:38.972Z,17.71
2022-10-26T06:57:24.865Z,17.71
2022-10-26T07:00:16.285Z,17.80
2022-10-26T07:03:00.225Z,18.17
2022-10-26T07:05:46.553Z,17.93
2022-10-26T07:08:33.092Z,18.33
2022-10-26T07:11:16.806Z,18.31
2022-10-26T07:14:00.477Z,18.61
2022-10-26T07:16:44.274Z,18.88
2022-10-26T07:19:28.003Z,19.20
2022-10-26T07:22:13.478Z,19.21
2022-10-26T07:24:59.292Z,19.19
2022-10-26T07:27:46.924Z,18.86
2022-10-26T07:30:31.769Z,18.93
2022-10-26T07:33:15.901Z,18.99
2022-10-26T07:36:00.401Z,19.37
2022-10-26T07:38:45.492Z,19.45
2022-10-26T07:41:29.271Z,19.36
2022-10-26T07:44:12.999Z,19.22
2022-10-26T07:46:57.162Z,19.41
2022-10-26T07:49:40.867Z,19.50
2022-10-26T07:52:24.585Z,19.53
2022-10-26T07:55:11.354Z,19.78
2022-10-26T07:57:56.753Z,19.68
2022-10-26T08:00:40.803Z,19.91
2022-10-26T08:03:24.790Z,20.50
2022-10-26T08:06:10.579Z,20.83
2022-10-26T08:08:54.486Z,20.56
2022-10-26T08:11:39.654Z,20.65
2022-10-26T08:14:23.484Z,20.87
2022-10-26T08:17:07.231Z,21.08
2022-10-26T08:19:50.974Z,21.00
2022-10-26T08:22:34.696Z,21.70
2022-10-26T08:25:21.249Z,21.84
2022-10-26T08:28:06.914Z,22.32
2022-10-26T08:30:50.653Z,22.14
2022-10-26T08:33:34.791Z,22.47
2022-10-26T08:36:21.649Z,22.26
2022-10-26T08:39:05.522Z,21.72
2022-10-26T08:41:53.518Z,21.90
2022-10-26T08:44:43.682Z,21.36
2022-10-26T08:47:31.670Z,21.07
2022-10-26T08:50:25.456Z,21.21
2022-10-26T08:53:15.511Z,21.72
2022-10-26T08:56:05.203Z,21.08
2022-10-26T08:58:53.498Z,21.28
2022-10-26T09:01:38.646Z,21.01
2022-10-26T09:04:27.366Z,20.59
2022-10-26T09:07:19.989Z,20.11
2022-10-26T09:10:13.177Z,20.64
2022-10-26T09:13:04.194Z,20.88
2022-10-26T09:16:01.195Z,20.28
2022-10-26T09:18:57.722Z,20.47
2022-10-26T09:21:51.873Z,21.08
2022-10-26T09:24:40.636Z,21.50
2022-10-26T09:27:28.732Z,21.33
2022-10-26T09:30:16.704Z,21.39
2022-10-26T09:33:04.088Z,21.22
2022-10-26T09:35:52.912Z,20.98
2022-10-26T09:38:41.991Z,21.40
2022-10-26T09:41:32.010Z,21.75
2022-10-26T09:44:26.229Z,21.82
2022-10-26T09:47:18.205Z,21.29
2022-10-26T09:50:16.590Z,21.07
2022-10-26T09:53:01.683Z,21.36
2022-10-26T09:55:47.971Z,21.25
2022-10-26T09:58:35.894Z,21.67
2022-10-26T10:01:35.489Z,21.66
2022-10-26T10:04:24.199Z,21.37
2022-10-26T10:07:15.232Z,21.72
2022-10-26T10:10:16.657Z,21.88
2022-10-26T10:13:15.500Z,21.96
2022-10-26T10:16:07.556Z,22.06
2022-10-26T10:18:55.960Z,22.00
2022-10-26T10:21:43.851Z,22.26
2022-10-26T10:24:30.555Z,22.22
2022-10-26T10:27:19.983Z,22.09
2022-10-26T10:30:29.695Z,22.08
2022-10-26T10:33:13.935Z,22.47
2022-10-26T10:35:58.878Z,22.48
2022-10-26T10:38:45.285Z,22.18
2022-10-26T10:41:32.046Z,22.00
2022-10-26T10:44:24.091Z,21.97
2022-10-26T10:47:08.664Z,21.87
2022-10-26T10:49:55.815Z,21.73
2022-10-26T10:52:39.562Z,21.75
2022-10-26T10:55:24.022Z,21.62
2022-10-26T10:58:20.389Z,21.84
2022-10-26T11:01:08.067Z,21.86
2022-10-26T11:04:09.939Z,22.17
2022-10-26T11:06:58.589Z,22.16
2022-10-26T11:09:46.283Z,21.90
2022-10-26T11:15:26.066Z,21.99
2022-10-26T11:18:16.670Z,21.98
2022-10-26T11:21:05.911Z,22.03
2022-10-26T11:23:55.674Z,22.08
2022-10-26T11:26:46.206Z,22.02
2022-10-26T11:29:39.857Z,21.76
2022-10-26T11:32:30.360Z,21.89
2022-10-26T11:35:19.795Z,22.00
2022-10-26T11:38:11.232Z,22.42
2022-10-26T11:41:02.037Z,22.86
2022-10-26T11:43:48.436Z,22.99
2022-10-26T11:46:36.778Z,22.90
2022-10-26T11:49:27.806Z,22.88
2022-10-26T11:52:18.826Z,22.79
2022-10-26T11:55:04.913Z,23.24
2022-10-26T11:57:49.635Z,23.45
2022-10-26T12:00:35.623Z,23.92
2022-10-26T12:03:24.707Z,24.52
2022-10-26T12:06:08.618Z,24.20
2022-10-26T12:09:00.882Z,23.43
2022-10-26T12:11:49.470Z,24.17
2022-10-26T12:14:40.770Z,24.01
2022-10-26T12:17:30.834Z,23.36
2022-10-26T12:20:36.452Z,22.97
2022-10-26T12:23:33.810Z,22.72
2022-10-26T12:26:56.030Z,22.45
2022-10-26T12:29:45.889Z,22.17
2022-10-26T12:32:51.806Z,22.39
2022-10-26T12:35:41.411Z,22.29
2022-10-26T12:39:06.380Z,22.53
2022-10-26T12:41:59.007Z,22.35
2022-10-26T12:45:03.257Z,21.82
2022-10-26T12:48:34.783Z,22.15
2022-10-26T12:51:44.048Z,22.28
2022-10-26T12:54:40.101Z,22.00
2022-10-26T12:57:32.104Z,21.54
2022-10-26T13:00:18.442Z,21.73
2022-10-26T13:03:13.960Z,21.69
2022-10-26T13:06:22.847Z,21.86
2022-10-26T13:09:17.627Z,21.95
2022-10-26T13:12:05.602Z,22.11
2022-10-26T13:15:01.526Z,21.80
2022-10-26T13:17:56.462Z,21.81
2022-10-26T13:20:55.174Z,21.72
2022-10-26T13:23:41.497Z,21.62
2022-10-26T13:26:27.149Z,20.81
2022-10-26T13:29:12.323Z,21.49
2022-10-26T13:31:59.017Z,21.69
2022-10-26T13:34:45.475Z,21.74
2022-10-26T13:37:32.610Z,21.83
2022-10-26T13:40:19.651Z,22.06
2022-10-26T13:43:05.545Z,22.02
2022-10-26T13:45:55.311Z,22.17
2022-10-26T13:48:42.916Z,22.27
2022-10-26T13:51:38.588Z,22.17
2022-10-26T13:54:29.335Z,22.07
2022-10-26T13:57:19.325Z,22.24
2022-10-26T14:00:09.780Z,22.24
2022-10-26T14:02:55.668Z,22.20
2022-10-26T14:05:45.880Z,21.93
2022-10-26T14:08:29.902Z,21.65
2022-10-26T14:11:16.862Z,21.02
2022-10-26T14:14:01.809Z,21.00
2022-10-26T14:16:47.605Z,20.99
2022-10-26T14:19:35.135Z,20.92
2022-10-26T14:22:24.954Z,20.87
2022-10-26T14:25:26.724Z,20.69
2022-10-26T14:28:24.648Z,19.80
2022-10-26T14:31:18.158Z,20.19
2022-10-26T14:34:06.352Z,20.40
2022-10-26T14:36:53.695Z,20.34
2022-10-26T14:39:43.929Z,19.73
2022-10-26T14:42:31.715Z,19.42
2022-10-26T14:45:47.515Z,19.94
2022-10-26T14:48:35.262Z,19.50
2022-10-26T14:51:21.275Z,19.67
2022-10-26T14:54:05.650Z,19.63
2022-10-26T14:56:51.501Z,18.97
2022-10-26T14:59:35.559Z,19.22
2022-10-26T15:02:22.525Z,18.95
2022-10-26T15:05:20.477Z,19.04
2022-10-26T15:08:04.393Z,18.77
2022-10-26T15:10:49.485Z,18.73
2022-10-26T15:13:36.287Z,18.20
2022-10-26T15:16:21.896Z,18.30
2022-10-26T15:19:10.921Z,18.36
2022-10-26T15:21:55.431Z,18.06
2022-10-26T15:24:40.440Z,18.11
2022-10-26T15:27:25.041Z,18.20
2022-10-26T15:30:28.161Z,18.11
2022-10-26T15:33:22.244Z,17.85
2022-10-26T15:36:17.151Z,17.81
2022-10-26T15:39:01.189Z,17.90
2022-10-26T15:41:48.034Z,17.74
2022-10-26T15:44:31.747Z,18.01
2022-10-26T15:47:20.727Z,18.01
2022-10-26T15:50:04.832Z,18.15
2022-10-26T15:52:49.643Z,18.00
2022-10-26T15:55:33.469Z,17.95
2022-10-26T15:58:17.356Z,17.87
2022-10-26T16:01:01.114Z,17.65
2022-10-26T16:03:46.379Z,17.65
2022-10-26T16:06:32.006Z,17.74
2022-10-26T16:09:17.859Z,17.88
2022-10-26T16:12:01.664Z,17.86
2022-10-26T16:15:04.324Z,18.02
2022-10-26T16:17:49.714Z,17.71
2022-10-26T16:20:35.386Z,17.89
2022-10-26T16:23:19.080Z,17.87
2022-10-26T16:26:05.548Z,17.74
2022-10-26T16:28:49.637Z,17.81
2022-10-26T16:31:33.361Z,17.74
2022-10-26T16:34:17.434Z,17.55
2022-10-26T16:37:02.761Z,17.32
2022-10-26T16:39:46.657Z,17.13
2022-10-26T16:42:32.417Z,17.13
2022-10-26T16:45:17.109Z,17.41
2022-10-26T16:48:05.816Z,17.28
2022-10-26T16:50:49.768Z,17.36
2022-10-26T16:53:35.285Z,17.26
2022-10-26T16:56:20.973Z,17.02
2022-10-26T16:59:05.005Z,17.01
2022-10-26T17:01:48.993Z,16.76
2022-10-26T17:04:33.068Z,16.69
2022-10-26T17:07:17.042Z,16.33
2022-10-26T17:10:02.408Z,16.17
2022-10-26T17:12:47.544Z,16.19
2022-10-26T17:15:31.674Z,15.94
2022-10-26T17:18:15.776Z,15.85
2022-10-26T17:20:59.962Z,16.01
2022-10-26T17:23:44.033Z,15.82
2022-10-26T17:26:29.781Z,15.01
2022-10-26T17:29:14.344Z,15.46
2022-10-26T17:31:58.378Z,15.72
2022-10-26T17:34:42.366Z,15.64
2022-10-26T17:37:26.469Z,15.49
2022-10-26T17:40:11.618Z,15.05
2022-10-26T17:42:57.770Z,15.14
2022-10-26T17:45:41.941Z,15.24
2022-10-26T17:48:26.146Z,15.31
2022-10-26T17:51:13.315Z,15.23
2022-10-26T17:53:59.271Z,14.94
2022-10-26T17:56:43.297Z,15.05
2022-10-26T17:59:29.062Z,14.91
2022-10-26T18:02:13.311Z,14.88
2022-10-26T18:04:57.306Z,14.75
2022-10-26T18:07:41.511Z,15.00
2022-10-26T18:10:37.563Z,14.54
2022-10-26T18:13:22.309Z,14.75
2022-10-26T18:16:10.735Z,15.02
2022-10-26T18:19:00.684Z,14.80
2022-10-26T18:21:46.034Z,14.41
2022-10-26T18:24:29.918Z,14.58
2022-10-26T18:27:13.906Z,15.05
2022-10-26T18:29:57.723Z,14.89
2022-10-26T18:32:43.041Z,15.06
2022-10-26T18:35:26.916Z,15.12
2022-10-26T18:38:10.958Z,15.04
2022-10-26T18:40:55.251Z,14.99
2022-10-26T18:43:41.759Z,15.06
2022-10-26T18:46:28.317Z,14.74
2022-10-26T18:49:14.368Z,15.05
2022-10-26T18:51:58.532Z,14.67
2022-10-26T18:54:42.387Z,14.78
2022-10-26T18:57:28.665Z,14.98
2022-10-26T19:00:13.993Z,14.96
2022-10-26T19:02:58.391Z,14.96
2022-10-26T19:05:43.927Z,14.93
2022-10-26T19:08:28.119Z,15.02
2022-10-26T19:11:13.535Z,15.08
2022-10-26T19:13:57.739Z,14.90
2022-10-26T19:16:46.796Z,14.75
2022-10-26T19:19:31.370Z,14.73
2022-10-26T19:22:16.730Z,14.79
2022-10-26T19:25:00.853Z,14.56
2022-10-26T19:27:47.147Z,14.40
2022-10-26T19:30:31.168Z,14.63
2022-10-26T19:33:15.005Z,14.44
2022-10-26T19:36:02.262Z,14.45
2022-10-26T19:38:47.557Z,14.49
2022-10-26T19:41:31.545Z,14.57
2022-10-26T19:44:17.290Z,14.60
2022-10-26T19:47:02.644Z,14.56
2022-10-26T19:49:46.484Z,14.29
2022-10-26T19:52:30.309Z,14.33
2022-10-26T19:55:15.581Z,14.27
2022-10-26T19:57:59.453Z,14.55
2022-10-26T20:00:44.103Z,14.65
2022-10-26T20:03:29.109Z,14.41
2022-10-26T20:06:14.149Z,14.42
2022-10-26T20:08:57.909Z,14.29
2022-10-26T20:11:43.496Z,14.32
2022-10-26T20:14:27.184Z,14.21
2022-10-26T20:17:10.982Z,14.28
2022-10-26T20:19:55.920Z,14.22
2022-10-26T20:22:39.655Z,14.22
2022-10-26T20:25:23.440Z,14.21
2022-10-26T20:28:08.568Z,14.10
2022-10-26T20:30:52.223Z,14.36
2022-10-26T20:33:35.988Z,14.40
2022-10-26T20:36:19.916Z,14.15
2022-10-26T20:39:05.934Z,14.48
2022-10-26T20:41:50.311Z,14.50
2022-10-26T20:44:42.905Z,14.31
2022-10-26T20:47:27.291Z,14.70
2022-10-26T20:50:13.403Z,14.66
2022-10-26T20:53:00.464Z,14.61
2022-10-26T20:55:49.909Z,14.54
2022-10-26T20:58:41.600Z,14.99
2022-10-26T21:01:29.519Z,15.12
2022-10-26T21:04:13.596Z,14.98
2022-10-26T21:06:57.593Z,14.95
2022-10-26T21:09:41.611Z,14.91
2022-10-26T21:12:25.597Z,14.37
2022-10-26T21:15:10.650Z,14.95
2022-10-26T21:17:56.060Z,14.74
2022-10-26T21:20:40.004Z,14.93
2022-10-26T21:23:23.931Z,14.55
2022-10-26T21:26:08.652Z,14.68
2022-10-26T21:28:52.630Z,14.51
2022-10-26T21:31:36.511Z,14.97
2022-10-26T21:34:21.922Z,14.79
2022-10-26T21:37:05.901Z,15.00
2022-10-26T21:39:49.834Z,14.79
2022-10-26T21:42:33.812Z,14.74
2022-10-26T21:45:17.850Z,14.88
2022-10-26T21:48:01.843Z,14.97
2022-10-26T21:50:47.204Z,14.50
2022-10-26T21:53:31.324Z,14.58
2022-10-26T21:56:18.553Z,14.73
2022-10-26T21:59:02.597Z,14.59
2022-10-26T22:01:46.772Z,14.58
2022-10-26T22:04:30.754Z,14.42
2022-10-26T22:07:17.178Z,14.20
2022-10-26T22:10:10.553Z,14.54
2022-10-26T22:12:54.865Z,14.38
2022-10-26T22:15:38.866Z,14.06
2022-10-26T22:18:22.927Z,14.18
2022-10-26T22:21:08.358Z,14.34
2022-10-26T22:23:54.229Z,13.92
2022-10-26T22:26:38.864Z,13.73
2022-10-26T22:29:22.787Z,14.07
2022-10-26T22:32:07.034Z,13.66
2022-10-26T22:35:00.315Z,14.01
2022-10-26T22:37:55.933Z,13.81
2022-10-26T22:40:41.281Z,13.66
2022-10-26T22:43:25.484Z,13.95
2022-10-26T22:46:12.871Z,13.46
2022-10-26T22:48:58.119Z,13.83
2022-10-26T22:51:42.141Z,13.86
2022-10-26T22:54:25.961Z,14.07
2022-10-26T22:57:11.345Z,13.87
2022-10-26T22:59:55.338Z,13.93
2022-10-26T23:02:39.394Z,13.85
2022-10-26T23:05:23.290Z,13.88
2022-10-26T23:08:07.268Z,13.92
2022-10-26T23:10:51.168Z,14.07
2022-10-26T23:13:36.647Z,14.02
2022-10-26T23:16:20.646Z,13.67
2022-10-26T23:19:04.580Z,13.62
2022-10-26T23:21:48.507Z,13.40
2022-10-26T23:24:32.460Z,13.40
2022-10-26T23:27:16.439Z,13.75
2022-10-26T23:30:01.847Z,13.69
2022-10-26T23:32:47.203Z,13.88
2022-10-26T23:35:31.379Z,13.73
2022-10-26T23:38:15.294Z,13.83
2022-10-26T23:41:00.618Z,13.64
2022-10-26T23:43:44.594Z,13.65
2022-10-26T23:46:29.961Z,13.62
2022-10-26T23:49:13.972Z,13.28
2022-10-26T23:51:57.907Z,13.45
2022-10-26T23:54:41.907Z,14.01
2022-10-26T23:57:25.939Z,13.85
